sensor_id;sensor_type;location;lat;lon;timestamp;temperature;humidity
25010;DHT22;13026;49.486;10.926;2022-07-19T00:01:54;19.10;66.90
25010;DHT22;13026;49.486;10.926;2022-07-19T00:04:19;19.00;66.80
25010;DHT22;13026;49.486;10.926;2022-07-19T00:06:45;19.00;67.10
25010;DHT22;13026;49.486;10.926;2022-07-19T00:09:10;18.90;67.10
25010;DHT22;13026;49.486;10.926;2022-07-19T00:11:36;18.90;67.60
25010;DHT22;13026;49.486;10.926;2022-07-19T00:14:01;18.80;68.00
25010;DHT22;13026;49.486;10.926;2022-07-19T00:16:27;18.80;68.30
25010;DHT22;13026;49.486;10.926;2022-07-19T00:18:52;18.80;68.40
25010;DHT22;13026;49.486;10.926;2022-07-19T00:21:18;18.70;68.40
25010;DHT22;13026;49.486;10.926;2022-07-19T00:23:43;18.70;68.60
25010;DHT22;13026;49.486;10.926;2022-07-19T00:26:09;18.70;68.90
25010;DHT22;13026;49.486;10.926;2022-07-19T00:28:35;18.70;69.00
25010;DHT22;13026;49.486;10.926;2022-07-19T00:31:00;18.60;68.60
25010;DHT22;13026;49.486;10.926;2022-07-19T00:33:26;18.50;68.60
25010;DHT22;13026;49.486;10.926;2022-07-19T00:35:51;18.50;68.90
25010;DHT22;13026;49.486;10.926;2022-07-19T00:38:18;18.50;69.20
25010;DHT22;13026;49.486;10.926;2022-07-19T00:40:44;18.40;69.40
25010;DHT22;13026;49.486;10.926;2022-07-19T00:43:11;18.40;69.40
25010;DHT22;13026;49.486;10.926;2022-07-19T00:45:37;18.40;69.60
25010;DHT22;13026;49.486;10.926;2022-07-19T00:48:03;18.30;70.00
25010;DHT22;13026;49.486;10.926;2022-07-19T00:50:29;18.30;70.00
25010;DHT22;13026;49.486;10.926;2022-07-19T00:53:02;18.30;69.80
25010;DHT22;13026;49.486;10.926;2022-07-19T00:55:30;18.30;69.70
25010;DHT22;13026;49.486;10.926;2022-07-19T00:57:58;18.20;70.10
25010;DHT22;13026;49.486;10.926;2022-07-19T01:00:24;18.10;70.10
25010;DHT22;13026;49.486;10.926;2022-07-19T01:02:51;18.10;70.50
25010;DHT22;13026;49.486;10.926;2022-07-19T01:05:17;18.00;70.80
25010;DHT22;13026;49.486;10.926;2022-07-19T01:07:43;18.00;71.20
25010;DHT22;13026;49.486;10.926;2022-07-19T01:10:10;18.00;71.40
25010;DHT22;13026;49.486;10.926;2022-07-19T01:12:37;18.00;71.30
25010;DHT22;13026;49.486;10.926;2022-07-19T01:15:18;18.00;71.90
25010;DHT22;13026;49.486;10.926;2022-07-19T01:17:44;18.00;72.20
25010;DHT22;13026;49.486;10.926;2022-07-19T01:20:11;17.90;72.50
25010;DHT22;13026;49.486;10.926;2022-07-19T01:22:36;17.90;72.70
25010;DHT22;13026;49.486;10.926;2022-07-19T01:25:03;17.80;72.50
25010;DHT22;13026;49.486;10.926;2022-07-19T01:27:28;17.80;72.70
25010;DHT22;13026;49.486;10.926;2022-07-19T01:29:54;17.80;72.40
25010;DHT22;13026;49.486;10.926;2022-07-19T01:32:19;17.80;72.30
25010;DHT22;13026;49.486;10.926;2022-07-19T01:34:46;17.70;72.60
25010;DHT22;13026;49.486;10.926;2022-07-19T01:37:12;17.70;73.20
25010;DHT22;13026;49.486;10.926;2022-07-19T01:39:37;17.70;73.70
25010;DHT22;13026;49.486;10.926;2022-07-19T01:42:03;17.60;73.90
25010;DHT22;13026;49.486;10.926;2022-07-19T01:44:28;17.60;73.70
25010;DHT22;13026;49.486;10.926;2022-07-19T01:46:54;17.60;74.60
25010;DHT22;13026;49.486;10.926;2022-07-19T01:49:21;17.60;74.20
25010;DHT22;13026;49.486;10.926;2022-07-19T01:51:46;17.60;74.70
25010;DHT22;13026;49.486;10.926;2022-07-19T01:54:12;17.60;74.50
25010;DHT22;13026;49.486;10.926;2022-07-19T01:56:42;17.60;74.40
25010;DHT22;13026;49.486;10.926;2022-07-19T01:59:07;17.60;74.20
25010;DHT22;13026;49.486;10.926;2022-07-19T02:01:33;17.50;74.00
25010;DHT22;13026;49.486;10.926;2022-07-19T02:03:58;17.50;74.40
25010;DHT22;13026;49.486;10.926;2022-07-19T02:06:24;17.40;74.40
25010;DHT22;13026;49.486;10.926;2022-07-19T02:08:49;17.40;74.20
25010;DHT22;13026;49.486;10.926;2022-07-19T02:11:15;17.40;73.80
25010;DHT22;13026;49.486;10.926;2022-07-19T02:13:43;17.30;73.80
25010;DHT22;13026;49.486;10.926;2022-07-19T02:16:09;17.30;74.20
25010;DHT22;13026;49.486;10.926;2022-07-19T02:18:34;17.20;74.40
25010;DHT22;13026;49.486;10.926;2022-07-19T02:21:01;17.20;74.50
25010;DHT22;13026;49.486;10.926;2022-07-19T02:23:26;17.20;74.80
25010;DHT22;13026;49.486;10.926;2022-07-19T02:25:52;17.20;74.60
25010;DHT22;13026;49.486;10.926;2022-07-19T02:28:17;17.10;74.40
25010;DHT22;13026;49.486;10.926;2022-07-19T02:30:43;17.10;74.50
25010;DHT22;13026;49.486;10.926;2022-07-19T02:33:08;17.00;74.70
25010;DHT22;13026;49.486;10.926;2022-07-19T02:35:34;17.00;74.80
25010;DHT22;13026;49.486;10.926;2022-07-19T02:37:59;17.00;74.90
25010;DHT22;13026;49.486;10.926;2022-07-19T02:40:25;16.90;75.20
25010;DHT22;13026;49.486;10.926;2022-07-19T02:42:50;16.90;75.40
25010;DHT22;13026;49.486;10.926;2022-07-19T02:45:16;16.90;75.40
25010;DHT22;13026;49.486;10.926;2022-07-19T02:47:43;16.90;75.60
25010;DHT22;13026;49.486;10.926;2022-07-19T02:50:09;16.80;75.40
25010;DHT22;13026;49.486;10.926;2022-07-19T02:52:34;16.80;75.20
25010;DHT22;13026;49.486;10.926;2022-07-19T02:55:00;16.70;75.40
25010;DHT22;13026;49.486;10.926;2022-07-19T02:57:25;16.70;75.50
25010;DHT22;13026;49.486;10.926;2022-07-19T02:59:51;16.70;75.80
25010;DHT22;13026;49.486;10.926;2022-07-19T03:02:16;16.70;76.20
25010;DHT22;13026;49.486;10.926;2022-07-19T03:04:42;16.70;76.60
25010;DHT22;13026;49.486;10.926;2022-07-19T03:07:08;16.70;76.70
25010;DHT22;13026;49.486;10.926;2022-07-19T03:09:33;16.70;76.80
25010;DHT22;13026;49.486;10.926;2022-07-19T03:11:58;16.70;76.40
25010;DHT22;13026;49.486;10.926;2022-07-19T03:14:24;16.70;76.70
25010;DHT22;13026;49.486;10.926;2022-07-19T03:16:50;16.60;76.90
25010;DHT22;13026;49.486;10.926;2022-07-19T03:19:15;16.60;77.00
25010;DHT22;13026;49.486;10.926;2022-07-19T03:21:41;16.60;77.30
25010;DHT22;13026;49.486;10.926;2022-07-19T03:24:06;16.60;77.50
25010;DHT22;13026;49.486;10.926;2022-07-19T03:26:32;16.60;77.80
25010;DHT22;13026;49.486;10.926;2022-07-19T03:28:57;16.60;78.00
25010;DHT22;13026;49.486;10.926;2022-07-19T03:31:23;16.60;78.20
25010;DHT22;13026;49.486;10.926;2022-07-19T03:33:48;16.60;79.20
25010;DHT22;13026;49.486;10.926;2022-07-19T03:36:14;16.60;78.30
25010;DHT22;13026;49.486;10.926;2022-07-19T03:38:39;16.60;78.00
25010;DHT22;13026;49.486;10.926;2022-07-19T03:41:05;16.60;77.60
25010;DHT22;13026;49.486;10.926;2022-07-19T03:43:30;16.60;77.70
25010;DHT22;13026;49.486;10.926;2022-07-19T03:45:56;16.50;78.20
25010;DHT22;13026;49.486;10.926;2022-07-19T03:48:21;16.50;78.20
25010;DHT22;13026;49.486;10.926;2022-07-19T03:50:47;16.50;78.10
25010;DHT22;13026;49.486;10.926;2022-07-19T03:53:12;16.50;77.70
25010;DHT22;13026;49.486;10.926;2022-07-19T03:55:38;16.40;77.20
25010;DHT22;13026;49.486;10.926;2022-07-19T03:58:04;16.40;77.30
25010;DHT22;13026;49.486;10.926;2022-07-19T04:00:30;16.30;77.50
25010;DHT22;13026;49.486;10.926;2022-07-19T04:02:56;16.30;78.10
25010;DHT22;13026;49.486;10.926;2022-07-19T04:05:21;16.30;78.50
25010;DHT22;13026;49.486;10.926;2022-07-19T04:07:47;16.30;78.60
25010;DHT22;13026;49.486;10.926;2022-07-19T04:10:12;16.30;78.80
25010;DHT22;13026;49.486;10.926;2022-07-19T04:12:38;16.30;78.90
25010;DHT22;13026;49.486;10.926;2022-07-19T04:15:04;16.40;79.20
25010;DHT22;13026;49.486;10.926;2022-07-19T04:17:30;16.40;79.30
25010;DHT22;13026;49.486;10.926;2022-07-19T04:19:56;16.50;78.90
25010;DHT22;13026;49.486;10.926;2022-07-19T04:22:21;16.50;78.40
25010;DHT22;13026;49.486;10.926;2022-07-19T04:24:47;16.50;78.30
25010;DHT22;13026;49.486;10.926;2022-07-19T04:27:12;16.50;78.00
25010;DHT22;13026;49.486;10.926;2022-07-19T04:29:38;16.60;78.00
25010;DHT22;13026;49.486;10.926;2022-07-19T04:32:04;16.60;78.10
25010;DHT22;13026;49.486;10.926;2022-07-19T04:34:29;16.60;78.30
25010;DHT22;13026;49.486;10.926;2022-07-19T04:36:55;16.70;78.70
25010;DHT22;13026;49.486;10.926;2022-07-19T04:39:20;16.70;78.70
25010;DHT22;13026;49.486;10.926;2022-07-19T04:41:46;16.80;78.50
25010;DHT22;13026;49.486;10.926;2022-07-19T04:44:11;16.80;78.60
25010;DHT22;13026;49.486;10.926;2022-07-19T04:46:37;16.80;78.60
25010;DHT22;13026;49.486;10.926;2022-07-19T04:49:02;16.90;78.60
25010;DHT22;13026;49.486;10.926;2022-07-19T04:51:28;17.00;78.40
25010;DHT22;13026;49.486;10.926;2022-07-19T04:53:53;17.00;78.10
25010;DHT22;13026;49.486;10.926;2022-07-19T04:56:19;17.00;78.00
25010;DHT22;13026;49.486;10.926;2022-07-19T04:58:44;17.10;78.20
25010;DHT22;13026;49.486;10.926;2022-07-19T05:01:10;17.10;78.60
25010;DHT22;13026;49.486;10.926;2022-07-19T05:03:35;17.20;78.80
25010;DHT22;13026;49.486;10.926;2022-07-19T05:06:01;17.30;79.40
25010;DHT22;13026;49.486;10.926;2022-07-19T05:08:27;17.30;79.20
25010;DHT22;13026;49.486;10.926;2022-07-19T05:10:52;17.40;78.90
25010;DHT22;13026;49.486;10.926;2022-07-19T05:13:18;17.50;78.60
25010;DHT22;13026;49.486;10.926;2022-07-19T05:15:43;17.60;78.40
25010;DHT22;13026;49.486;10.926;2022-07-19T05:18:09;17.70;78.60
25010;DHT22;13026;49.486;10.926;2022-07-19T05:20:34;17.80;78.40
25010;DHT22;13026;49.486;10.926;2022-07-19T05:23:00;18.00;78.40
25010;DHT22;13026;49.486;10.926;2022-07-19T05:25:25;18.10;77.80
25010;DHT22;13026;49.486;10.926;2022-07-19T05:27:51;18.20;77.10
25010;DHT22;13026;49.486;10.926;2022-07-19T05:30:16;18.40;76.80
25010;DHT22;13026;49.486;10.926;2022-07-19T05:32:42;18.50;75.90
25010;DHT22;13026;49.486;10.926;2022-07-19T05:35:08;18.60;75.60
25010;DHT22;13026;49.486;10.926;2022-07-19T05:37:34;18.70;75.00
25010;DHT22;13026;49.486;10.926;2022-07-19T05:39:59;18.80;74.80
25010;DHT22;13026;49.486;10.926;2022-07-19T05:42:25;18.90;75.20
25010;DHT22;13026;49.486;10.926;2022-07-19T05:44:50;19.00;74.00
25010;DHT22;13026;49.486;10.926;2022-07-19T05:47:16;19.20;72.90
25010;DHT22;13026;49.486;10.926;2022-07-19T05:49:41;19.30;72.50
25010;DHT22;13026;49.486;10.926;2022-07-19T05:52:07;19.40;72.50
25010;DHT22;13026;49.486;10.926;2022-07-19T05:54:32;19.60;72.10
25010;DHT22;13026;49.486;10.926;2022-07-19T05:56:58;19.70;71.60
25010;DHT22;13026;49.486;10.926;2022-07-19T05:59:23;19.80;71.80
25010;DHT22;13026;49.486;10.926;2022-07-19T06:01:49;19.90;70.60
25010;DHT22;13026;49.486;10.926;2022-07-19T06:04:15;20.00;69.40
25010;DHT22;13026;49.486;10.926;2022-07-19T06:06:40;20.20;68.60
25010;DHT22;13026;49.486;10.926;2022-07-19T06:09:06;20.30;68.00
25010;DHT22;13026;49.486;10.926;2022-07-19T06:11:31;20.40;67.30
25010;DHT22;13026;49.486;10.926;2022-07-19T06:13:57;20.50;66.80
25010;DHT22;13026;49.486;10.926;2022-07-19T06:16:23;20.70;66.50
25010;DHT22;13026;49.486;10.926;2022-07-19T06:18:49;20.70;66.30
25010;DHT22;13026;49.486;10.926;2022-07-19T06:21:16;20.90;66.00
25010;DHT22;13026;49.486;10.926;2022-07-19T06:23:42;21.00;65.60
25010;DHT22;13026;49.486;10.926;2022-07-19T06:26:09;21.10;65.20
25010;DHT22;13026;49.486;10.926;2022-07-19T06:28:35;21.30;65.00
25010;DHT22;13026;49.486;10.926;2022-07-19T06:31:00;21.40;64.50
25010;DHT22;13026;49.486;10.926;2022-07-19T06:33:26;21.50;65.40
25010;DHT22;13026;49.486;10.926;2022-07-19T06:35:52;21.60;64.40
25010;DHT22;13026;49.486;10.926;2022-07-19T06:38:18;21.70;63.20
25010;DHT22;13026;49.486;10.926;2022-07-19T06:40:43;21.80;62.50
25010;DHT22;13026;49.486;10.926;2022-07-19T06:43:09;22.00;61.60
25010;DHT22;13026;49.486;10.926;2022-07-19T06:45:35;22.10;61.20
25010;DHT22;13026;49.486;10.926;2022-07-19T06:48:01;22.20;61.10
25010;DHT22;13026;49.486;10.926;2022-07-19T06:50:27;22.40;60.80
25010;DHT22;13026;49.486;10.926;2022-07-19T06:52:52;22.50;60.40
25010;DHT22;13026;49.486;10.926;2022-07-19T06:55:18;22.60;59.90
25010;DHT22;13026;49.486;10.926;2022-07-19T06:57:43;22.70;59.50
25010;DHT22;13026;49.486;10.926;2022-07-19T07:00:10;22.80;59.10
25010;DHT22;13026;49.486;10.926;2022-07-19T07:02:36;23.00;58.60
25010;DHT22;13026;49.486;10.926;2022-07-19T07:05:03;23.10;58.00
25010;DHT22;13026;49.486;10.926;2022-07-19T07:07:28;23.20;57.30
25010;DHT22;13026;49.486;10.926;2022-07-19T07:09:54;23.30;56.90
25010;DHT22;13026;49.486;10.926;2022-07-19T07:12:19;23.50;56.50
25010;DHT22;13026;49.486;10.926;2022-07-19T07:14:45;23.60;55.80
25010;DHT22;13026;49.486;10.926;2022-07-19T07:17:10;23.70;55.60
25010;DHT22;13026;49.486;10.926;2022-07-19T07:19:36;23.90;55.10
25010;DHT22;13026;49.486;10.926;2022-07-19T07:22:02;24.00;54.60
25010;DHT22;13026;49.486;10.926;2022-07-19T07:24:28;24.10;54.20
25010;DHT22;13026;49.486;10.926;2022-07-19T07:26:53;24.30;54.20
25010;DHT22;13026;49.486;10.926;2022-07-19T07:29:19;24.40;53.70
25010;DHT22;13026;49.486;10.926;2022-07-19T07:31:45;24.50;53.30
25010;DHT22;13026;49.486;10.926;2022-07-19T07:34:10;24.60;53.30
25010;DHT22;13026;49.486;10.926;2022-07-19T07:36:36;24.70;52.80
25010;DHT22;13026;49.486;10.926;2022-07-19T07:39:01;24.90;52.50
25010;DHT22;13026;49.486;10.926;2022-07-19T07:41:27;25.00;52.30
25010;DHT22;13026;49.486;10.926;2022-07-19T07:43:53;25.10;51.90
25010;DHT22;13026;49.486;10.926;2022-07-19T07:46:18;25.30;51.40
25010;DHT22;13026;49.486;10.926;2022-07-19T07:48:44;25.40;51.20
25010;DHT22;13026;49.486;10.926;2022-07-19T07:51:09;25.50;51.40
25010;DHT22;13026;49.486;10.926;2022-07-19T07:53:35;25.60;51.40
25010;DHT22;13026;49.486;10.926;2022-07-19T07:56:00;25.80;50.90
25010;DHT22;13026;49.486;10.926;2022-07-19T07:58:26;25.80;50.50
25010;DHT22;13026;49.486;10.926;2022-07-19T08:00:51;26.00;50.40
25010;DHT22;13026;49.486;10.926;2022-07-19T08:03:17;26.10;50.20
25010;DHT22;13026;49.486;10.926;2022-07-19T08:05:42;26.20;49.60
25010;DHT22;13026;49.486;10.926;2022-07-19T08:08:08;26.30;49.70
25010;DHT22;13026;49.486;10.926;2022-07-19T08:10:34;26.40;49.30
25010;DHT22;13026;49.486;10.926;2022-07-19T08:13:00;26.50;49.20
25010;DHT22;13026;49.486;10.926;2022-07-19T08:15:26;26.60;49.10
25010;DHT22;13026;49.486;10.926;2022-07-19T08:17:51;26.70;48.80
25010;DHT22;13026;49.486;10.926;2022-07-19T08:20:17;26.80;48.30
25010;DHT22;13026;49.486;10.926;2022-07-19T08:22:42;26.90;48.20
25010;DHT22;13026;49.486;10.926;2022-07-19T08:25:08;27.00;47.50
25010;DHT22;13026;49.486;10.926;2022-07-19T08:27:34;27.20;46.90
25010;DHT22;13026;49.486;10.926;2022-07-19T08:30:01;27.30;46.60
25010;DHT22;13026;49.486;10.926;2022-07-19T08:32:26;27.30;46.80
25010;DHT22;13026;49.486;10.926;2022-07-19T08:34:52;27.40;45.90
25010;DHT22;13026;49.486;10.926;2022-07-19T08:37:17;27.50;45.80
25010;DHT22;13026;49.486;10.926;2022-07-19T08:39:43;27.60;46.10
25010;DHT22;13026;49.486;10.926;2022-07-19T08:42:08;27.70;45.80
25010;DHT22;13026;49.486;10.926;2022-07-19T08:44:35;27.80;45.60
25010;DHT22;13026;49.486;10.926;2022-07-19T08:47:01;27.90;45.20
25010;DHT22;13026;49.486;10.926;2022-07-19T08:49:27;28.00;45.30
25010;DHT22;13026;49.486;10.926;2022-07-19T08:51:53;28.10;45.60
25010;DHT22;13026;49.486;10.926;2022-07-19T08:54:18;28.20;45.40
25010;DHT22;13026;49.486;10.926;2022-07-19T08:56:44;28.30;44.80
25010;DHT22;13026;49.486;10.926;2022-07-19T08:59:09;28.30;44.20
25010;DHT22;13026;49.486;10.926;2022-07-19T09:01:35;28.50;44.10
25010;DHT22;13026;49.486;10.926;2022-07-19T09:04:14;28.50;44.50
25010;DHT22;13026;49.486;10.926;2022-07-19T09:06:46;28.60;44.30
25010;DHT22;13026;49.486;10.926;2022-07-19T09:09:12;28.70;44.20
25010;DHT22;13026;49.486;10.926;2022-07-19T09:11:41;28.80;44.60
25010;DHT22;13026;49.486;10.926;2022-07-19T09:14:08;28.80;43.60
25010;DHT22;13026;49.486;10.926;2022-07-19T09:19:24;29.10;43.50
25010;DHT22;13026;49.486;10.926;2022-07-19T09:21:57;29.10;41.90
25010;DHT22;13026;49.486;10.926;2022-07-19T09:24:23;29.30;41.50
25010;DHT22;13026;49.486;10.926;2022-07-19T09:27:00;29.40;41.20
25010;DHT22;13026;49.486;10.926;2022-07-19T09:29:27;29.50;40.70
25010;DHT22;13026;49.486;10.926;2022-07-19T09:32:08;29.50;41.40
25010;DHT22;13026;49.486;10.926;2022-07-19T09:34:40;29.60;41.30
25010;DHT22;13026;49.486;10.926;2022-07-19T09:39:47;29.80;40.40
25010;DHT22;13026;49.486;10.926;2022-07-19T09:42:33;29.90;40.20
25010;DHT22;13026;49.486;10.926;2022-07-19T09:45:02;29.90;38.60
25010;DHT22;13026;49.486;10.926;2022-07-19T09:47:37;29.90;40.00
25010;DHT22;13026;49.486;10.926;2022-07-19T09:50:09;30.00;40.20
25010;DHT22;13026;49.486;10.926;2022-07-19T09:52:36;30.10;39.00
25010;DHT22;13026;49.486;10.926;2022-07-19T09:55:06;30.20;38.40
25010;DHT22;13026;49.486;10.926;2022-07-19T09:57:35;30.30;37.80
25010;DHT22;13026;49.486;10.926;2022-07-19T10:00:02;30.40;38.00
25010;DHT22;13026;49.486;10.926;2022-07-19T10:02:34;30.50;37.20
25010;DHT22;13026;49.486;10.926;2022-07-19T10:05:02;30.60;37.00
25010;DHT22;13026;49.486;10.926;2022-07-19T10:07:28;30.60;36.30
25010;DHT22;13026;49.486;10.926;2022-07-19T10:09:54;30.60;38.10
25010;DHT22;13026;49.486;10.926;2022-07-19T10:12:21;30.80;37.10
25010;DHT22;13026;49.486;10.926;2022-07-19T10:14:47;30.80;36.80
25010;DHT22;13026;49.486;10.926;2022-07-19T10:17:29;30.90;37.50
25010;DHT22;13026;49.486;10.926;2022-07-19T10:19:56;31.00;36.30
25010;DHT22;13026;49.486;10.926;2022-07-19T10:22:23;31.00;36.40
25010;DHT22;13026;49.486;10.926;2022-07-19T10:27:42;31.20;35.90
25010;DHT22;13026;49.486;10.926;2022-07-19T10:32:38;31.40;35.50
25010;DHT22;13026;49.486;10.926;2022-07-19T10:37:54;31.60;34.50
25010;DHT22;13026;49.486;10.926;2022-07-19T10:43:15;31.80;34.30
25010;DHT22;13026;49.486;10.926;2022-07-19T10:48:48;31.90;33.50
25010;DHT22;13026;49.486;10.926;2022-07-19T10:51:33;32.00;34.30
25010;DHT22;13026;49.486;10.926;2022-07-19T10:54:03;32.10;33.20
25010;DHT22;13026;49.486;10.926;2022-07-19T10:56:31;32.10;33.10
25010;DHT22;13026;49.486;10.926;2022-07-19T10:59:08;32.20;33.30
25010;DHT22;13026;49.486;10.926;2022-07-19T11:01:36;32.30;32.60
25010;DHT22;13026;49.486;10.926;2022-07-19T11:04:22;32.40;32.90
25010;DHT22;13026;49.486;10.926;2022-07-19T11:06:48;32.50;32.40
25010;DHT22;13026;49.486;10.926;2022-07-19T11:09:13;32.50;32.80
25010;DHT22;13026;49.486;10.926;2022-07-19T11:11:39;32.60;33.30
25010;DHT22;13026;49.486;10.926;2022-07-19T11:14:04;32.70;33.80
25010;DHT22;13026;49.486;10.926;2022-07-19T11:16:30;32.70;32.90
25010;DHT22;13026;49.486;10.926;2022-07-19T11:19:07;32.70;32.30
25010;DHT22;13026;49.486;10.926;2022-07-19T11:21:35;32.90;32.00
25010;DHT22;13026;49.486;10.926;2022-07-19T11:24:01;33.00;32.70
25010;DHT22;13026;49.486;10.926;2022-07-19T11:26:34;33.00;32.20
25010;DHT22;13026;49.486;10.926;2022-07-19T11:29:00;33.20;31.20
25010;DHT22;13026;49.486;10.926;2022-07-19T11:31:26;33.30;31.80
25010;DHT22;13026;49.486;10.926;2022-07-19T11:33:53;33.40;30.60
25010;DHT22;13026;49.486;10.926;2022-07-19T11:36:20;33.40;31.90
25010;DHT22;13026;49.486;10.926;2022-07-19T11:38:47;33.50;31.10
25010;DHT22;13026;49.486;10.926;2022-07-19T11:41:27;33.60;31.30
25010;DHT22;13026;49.486;10.926;2022-07-19T11:44:03;33.70;30.10
25010;DHT22;13026;49.486;10.926;2022-07-19T11:46:36;33.70;30.00
25010;DHT22;13026;49.486;10.926;2022-07-19T11:49:03;33.80;30.50
25010;DHT22;13026;49.486;10.926;2022-07-19T11:51:29;33.80;31.60
25010;DHT22;13026;49.486;10.926;2022-07-19T11:53:57;34.00;30.50
25010;DHT22;13026;49.486;10.926;2022-07-19T11:56:25;34.10;29.90
25010;DHT22;13026;49.486;10.926;2022-07-19T11:58:53;34.30;30.00
25010;DHT22;13026;49.486;10.926;2022-07-19T12:01:24;34.40;30.00
25010;DHT22;13026;49.486;10.926;2022-07-19T12:06:37;34.50;30.00
25010;DHT22;13026;49.486;10.926;2022-07-19T12:09:05;34.60;29.80
25010;DHT22;13026;49.486;10.926;2022-07-19T12:11:44;34.70;29.20
25010;DHT22;13026;49.486;10.926;2022-07-19T12:16:42;35.00;29.20
25010;DHT22;13026;49.486;10.926;2022-07-19T12:19:11;35.10;28.90
25010;DHT22;13026;49.486;10.926;2022-07-19T12:24:24;35.20;29.30
25010;DHT22;13026;49.486;10.926;2022-07-19T12:27:07;35.30;28.70
25010;DHT22;13026;49.486;10.926;2022-07-19T12:29:46;35.30;28.20
25010;DHT22;13026;49.486;10.926;2022-07-19T12:32:12;35.40;28.80
25010;DHT22;13026;49.486;10.926;2022-07-19T12:34:52;35.40;28.30
25010;DHT22;13026;49.486;10.926;2022-07-19T12:37:22;35.50;28.50
25010;DHT22;13026;49.486;10.926;2022-07-19T12:42:45;35.70;27.50
25010;DHT22;13026;49.486;10.926;2022-07-19T12:45:14;35.70;28.00
25010;DHT22;13026;49.486;10.926;2022-07-19T12:47:39;35.70;27.50
25010;DHT22;13026;49.486;10.926;2022-07-19T12:50:06;35.70;28.10
25010;DHT22;13026;49.486;10.926;2022-07-19T12:52:32;35.70;28.60
25010;DHT22;13026;49.486;10.926;2022-07-19T12:54:58;35.80;27.70
25010;DHT22;13026;49.486;10.926;2022-07-19T12:57:23;35.90;27.70
25010;DHT22;13026;49.486;10.926;2022-07-19T12:59:49;36.10;27.70
25010;DHT22;13026;49.486;10.926;2022-07-19T13:02:16;36.20;27.30
25010;DHT22;13026;49.486;10.926;2022-07-19T13:04:43;36.20;27.50
25010;DHT22;13026;49.486;10.926;2022-07-19T13:07:10;36.40;27.80
25010;DHT22;13026;49.486;10.926;2022-07-19T13:09:37;36.50;27.10
25010;DHT22;13026;49.486;10.926;2022-07-19T13:12:04;36.50;26.90
25010;DHT22;13026;49.486;10.926;2022-07-19T13:14:30;36.60;26.80
25010;DHT22;13026;49.486;10.926;2022-07-19T13:16:55;36.70;26.60
25010;DHT22;13026;49.486;10.926;2022-07-19T13:19:21;36.70;27.20
25010;DHT22;13026;49.486;10.926;2022-07-19T13:21:47;36.80;26.90
25010;DHT22;13026;49.486;10.926;2022-07-19T13:24:13;36.80;27.10
25010;DHT22;13026;49.486;10.926;2022-07-19T13:26:39;36.90;26.80
25010;DHT22;13026;49.486;10.926;2022-07-19T13:29:04;37.00;27.10
25010;DHT22;13026;49.486;10.926;2022-07-19T13:31:30;36.90;26.40
25010;DHT22;13026;49.486;10.926;2022-07-19T13:33:56;36.90;26.90
25010;DHT22;13026;49.486;10.926;2022-07-19T13:36:21;36.90;26.00
25010;DHT22;13026;49.486;10.926;2022-07-19T13:38:47;36.90;27.30
25010;DHT22;13026;49.486;10.926;2022-07-19T13:41:13;36.90;26.50
25010;DHT22;13026;49.486;10.926;2022-07-19T13:43:39;37.00;25.80
25010;DHT22;13026;49.486;10.926;2022-07-19T13:46:05;37.10;25.80
25010;DHT22;13026;49.486;10.926;2022-07-19T13:48:30;37.20;26.10
25010;DHT22;13026;49.486;10.926;2022-07-19T13:50:56;37.40;26.10
25010;DHT22;13026;49.486;10.926;2022-07-19T13:53:21;37.50;25.40
25010;DHT22;13026;49.486;10.926;2022-07-19T13:55:47;37.40;26.10
25010;DHT22;13026;49.486;10.926;2022-07-19T13:58:13;37.40;25.80
25010;DHT22;13026;49.486;10.926;2022-07-19T14:00:38;37.40;25.90
25010;DHT22;13026;49.486;10.926;2022-07-19T14:03:04;37.50;25.40
25010;DHT22;13026;49.486;10.926;2022-07-19T14:05:29;37.60;26.00
25010;DHT22;13026;49.486;10.926;2022-07-19T14:07:55;37.70;26.00
25010;DHT22;13026;49.486;10.926;2022-07-19T14:10:20;37.90;25.40
25010;DHT22;13026;49.486;10.926;2022-07-19T14:12:46;38.00;25.40
25010;DHT22;13026;49.486;10.926;2022-07-19T14:15:11;38.10;25.20
25010;DHT22;13026;49.486;10.926;2022-07-19T14:17:37;38.20;25.40
25010;DHT22;13026;49.486;10.926;2022-07-19T14:20:04;38.20;25.10
25010;DHT22;13026;49.486;10.926;2022-07-19T14:22:31;38.30;25.20
25010;DHT22;13026;49.486;10.926;2022-07-19T14:24:57;38.40;24.70
25010;DHT22;13026;49.486;10.926;2022-07-19T14:27:22;38.50;24.80
25010;DHT22;13026;49.486;10.926;2022-07-19T14:29:48;38.60;24.40
25010;DHT22;13026;49.486;10.926;2022-07-19T14:32:13;38.60;24.60
25010;DHT22;13026;49.486;10.926;2022-07-19T14:34:39;38.60;25.00
25010;DHT22;13026;49.486;10.926;2022-07-19T14:37:05;38.70;24.50
25010;DHT22;13026;49.486;10.926;2022-07-19T14:39:32;38.80;23.80
25010;DHT22;13026;49.486;10.926;2022-07-19T14:41:58;38.80;23.90
25010;DHT22;13026;49.486;10.926;2022-07-19T14:44:24;38.90;23.80
25010;DHT22;13026;49.486;10.926;2022-07-19T14:46:50;39.00;23.20
25010;DHT22;13026;49.486;10.926;2022-07-19T14:49:15;39.00;23.70
25010;DHT22;13026;49.486;10.926;2022-07-19T14:51:41;39.00;23.70
25010;DHT22;13026;49.486;10.926;2022-07-19T14:54:06;39.10;23.60
25010;DHT22;13026;49.486;10.926;2022-07-19T14:56:32;39.20;24.10
25010;DHT22;13026;49.486;10.926;2022-07-19T14:58:57;39.50;24.10
25010;DHT22;13026;49.486;10.926;2022-07-19T15:01:23;39.70;23.90
25010;DHT22;13026;49.486;10.926;2022-07-19T15:03:48;39.80;23.20
25010;DHT22;13026;49.486;10.926;2022-07-19T15:06:14;40.00;22.90
25010;DHT22;13026;49.486;10.926;2022-07-19T15:08:39;40.00;23.10
25010;DHT22;13026;49.486;10.926;2022-07-19T15:11:05;40.10;23.20
25010;DHT22;13026;49.486;10.926;2022-07-19T15:13:32;40.20;22.90
25010;DHT22;13026;49.486;10.926;2022-07-19T15:15:58;40.40;22.80
25010;DHT22;13026;49.486;10.926;2022-07-19T15:18:23;40.60;22.90
25010;DHT22;13026;49.486;10.926;2022-07-19T15:20:50;40.60;22.50
25010;DHT22;13026;49.486;10.926;2022-07-19T15:23:16;40.70;22.60
25010;DHT22;13026;49.486;10.926;2022-07-19T15:25:41;40.80;22.40
25010;DHT22;13026;49.486;10.926;2022-07-19T15:28:07;40.90;22.20
25010;DHT22;13026;49.486;10.926;2022-07-19T15:30:32;41.00;22.20
25010;DHT22;13026;49.486;10.926;2022-07-19T15:32:58;41.20;21.80
25010;DHT22;13026;49.486;10.926;2022-07-19T15:35:24;41.80;21.20
25010;DHT22;13026;49.486;10.926;2022-07-19T15:37:49;43.30;20.40
25010;DHT22;13026;49.486;10.926;2022-07-19T15:40:15;45.00;19.20
25010;DHT22;13026;49.486;10.926;2022-07-19T15:42:47;46.40;18.40